Alleghany, CA

3:10 AM PDT on September 15, 2014 (GMT -0700)
Reno - Stead | Change Station
CLOSE
Current Station
Airport
Location: Reno - Stead,
Elevation: 5049 ft
Nearby Weather Stations

Elev 5049 ft 39.67 °N, 119.88 °W | Updated 15 minutes ago

Partly Cloudy
Partly Cloudy
50 °F
Feels Like 50 °F
N
0
Wind Variable Wind from North

Today
High -- | Low -- °F
--% Chance of Precip.
Yesterday
High -- | Low -- °F
Precip. -- in
6:43 AM 7:11 PM
Waning Gibbous, 57% visible
Pressure 30.11 in
Visibility 10.0 miles
Clouds Clear
Dew Point 28 °F
Humidity 43%
Rainfall 0.00 in
Snow Depth 0 in , 0 in , 0 in
UV 0 out of 12
Pollen 7.30 out of 12
Ozone Moderate
Flu Activity Not available.
METAR KRTS 150955Z AUTO 00000KT 10SM CLR 10/M02 A3011 RMK AO2

More Conditions Fewer Conditions

Pressure 30.11 in
Visibility 10.0 miles
Clouds Clear
Dew Point 28 °F
Humidity 43%
Rainfall 0.00 in
Snow Depth 0 in , 0 in , 0 in
UV 0 out of 12
Pollen 7.30 out of 12
Ozone Moderate
Flu Activity Not available.
METAR KRTS 150955Z AUTO 00000KT 10SM CLR 10/M02 A3011 RMK AO2

More Conditions Fewer Conditions

10-Day Weather Forecast

Almanac

Astronomy

Sep. 15, 2014 Rise Set
Actual Time 6:43 AM PDT 7:11 PM PDT
Civil Twilight 6:16 AM PDT 7:37 PM PDT
Nautical Twilight 5:45 AM PDT 8:09 PM PDT
Astronomical Twilight 5:12 AM PDT 8:42 PM PDT
Moon 11:59 PM PDT 1:47 PM PDT
Length of Visible Light 13h 21m
Length of Day
12h 27m
Tomorrow will be 2m 33s shorter.
Waning Gibbous, 57% of the Moon is Illuminated
Today
Waning Gibbous
Sep 15
Last Quarter
Sep 24
New
Oct 1
First Quarter
Oct 8
Full

Today's Extremes

State Highs State Lows

Community

WunderPhotos

Upload Photos

1,753,428 photos uploaded!

WunderBlogs® & News

Nearby

Air Quality

  Air Quality AQ Index Pollutant
Yesterday Moderate
OZONE
Current Moderate
OZONE

Snow Depth

Station Depth Elevation
Forestdale Creek 0 in 8029 ft
Tahoe City Cross 0 in 6750 ft
Fallen Leaf 0 in 6300 ft
Hagan's Meadow 0 in 8000 ft
Summit Meadow 0 in 9122 ft

Earthquake Activity

City Distance Mag. Time & Date
No recent earthquake activity has been reported nearby.
Minimum magnitude displayed is 2.5.

Coastal Water Temperatures

Place Temperature
No Stations Reporting

Nearby Weather Stations